CheckWX is a tool to help pilots better visualize weather data.  It is not intended as a substitute for an official pre-flight weather briefing.

08:03:22 UTC

VVNB TAF
Noi Bai International Airport
Hanoi, Vietnam
TAF VVNB 190500Z 1906/2006 14005KT 6000 BKN010 BKN040 TEMPO 1906/1910 4000 TSRA BKN004 BKN020 FEW027CB BECMG 1912/1914 3000 BR BKN005 BKN020 TEMPO 1915/1924 1400 -DZ BR BKN003 BKN015 BECMG 2002/2003 6000 NSW SCT010 BKN040

Mar-19@
06:00 UTC

Mar-19 @ 06:00 UTC

Mar-19@
12:00 UTC

Mar-19 @ 12:00 UTC

TAF VVNB 190500Z 1906/2006 14005KT 6000 BKN010 BKN040
Wind
  • 140° at 5 KTS
Cloud Levels
  • Broken at 1,000' AGL
  • Broken at 4,000' AGL

Mar-19@
06:00 UTC

Mar-19 @ 06:00 UTC

Mar-19@
10:00 UTC

Mar-19 @ 10:00 UTC

TEMPO 1906/1910 4000 TSRA BKN004 BKN020 FEW027CB

Temporary

Temporary Changes expected for less than half the time period

Conditions
Thunderstorm, Rain
Cloud Levels
  • Broken at 400' AGL
  • Broken at 2,000' AGL
  • Few at 2,700' AGL

Mar-19@
12:00 UTC

Mar-19 @ 12:00 UTC

Mar-20@
02:00 UTC

Mar-20 @ 02:00 UTC

BECMG 1912/1914 3000 BR BKN005 BKN020

Becoming

Becoming Conditions expected by Tue, Mar 19, 2019 @ 14:00 UTC

Wind
  • 140° at 5 KTS
Conditions
Mist
Cloud Levels
  • Broken at 500' AGL
  • Broken at 2,000' AGL

Mar-19@
15:00 UTC

Mar-19 @ 15:00 UTC

Mar-20@
00:00 UTC

Mar-20 @ 00:00 UTC

TEMPO 1915/1924 1400 -DZ BR BKN003 BKN015

Temporary

Temporary Changes expected for less than half the time period

Conditions
Light Drizzle, Mist
Cloud Levels
  • Broken at 300' AGL
  • Broken at 1,500' AGL

Mar-20@
02:00 UTC

Mar-20 @ 02:00 UTC

Mar-20@
06:00 UTC

Mar-20 @ 06:00 UTC

BECMG 2002/2003 6000 NSW SCT010 BKN040

Becoming

Becoming Conditions expected by Wed, Mar 20, 2019 @ 03:00 UTC

Wind
  • 140° at 5 KTS
Conditions
No significant weather
Cloud Levels
  • Scattered at 1,000' AGL
  • Broken at 4,000' AGL